Time;durP1;ratioP1;P1;durP2;ratioP2;P2;SDS_P1;SDS_P2;PMS_P1;PMS_P2;Temp;Humidity;BMP_temperature;BMP_pressure;BME280_temperature;BME280_humidity;BME280_pressure;Samples;Min_cycle;Max_cycle;Signal;HPM_P1;HPM_P2
2022/03/16 00:02:11;;;;;;;5.13;3.43;;;;;;;;;;5062976;28;20515;-71
2022/03/16 00:04:43;;;;;;;5.13;3.50;;;;;;;;;;5066294;28;20213;-72
2022/03/16 00:07:15;;;;;;;3.70;3.10;;;;;;;;;;5059737;28;20215;-71
2022/03/16 00:09:45;;;;;;;5.20;2.87;;;;;;;;;;5061422;28;20214;-72
2022/03/16 00:12:12;;;;;;;3.50;2.90;;;;;;;;;;5064123;28;20213;-71
2022/03/16 00:14:42;;;;;;;3.80;3.30;;;;;;;;;;5042295;28;20233;-72
2022/03/16 00:17:14;;;;;;;4.63;3.40;;;;;;;;;;5064845;28;20206;-71
2022/03/16 00:19:53;;;;;;;3.43;3.00;;;;;;;;;;5055048;28;20224;-71
2022/03/16 00:22:23;;;;;;;8.27;3.00;;;;;;;;;;5063013;28;20666;-72
2022/03/16 00:24:55;;;;;;;3.97;3.30;;;;;;;;;;5083243;28;20227;-71
2022/03/16 00:27:29;;;;;;;4.37;3.10;;;;;;;;;;5082763;28;20199;-71
2022/03/16 00:29:59;;;;;;;4.03;2.80;;;;;;;;;;5076892;28;20213;-71
2022/03/16 00:32:31;;;;;;;3.10;2.80;;;;;;;;;;5061329;28;20201;-72
2022/03/16 00:35:02;;;;;;;4.33;3.20;;;;;;;;;;5077949;28;20197;-71
2022/03/16 00:37:33;;;;;;;3.50;2.90;;;;;;;;;;5040023;28;20230;-71
2022/03/16 00:40:03;;;;;;;4.07;3.07;;;;;;;;;;5049663;28;20214;-70
2022/03/16 00:42:35;;;;;;;3.70;3.13;;;;;;;;;;5078578;28;20229;-72
2022/03/16 00:45:05;;;;;;;3.90;2.97;;;;;;;;;;5069672;28;20221;-71
2022/03/16 00:47:40;;;;;;;4.57;2.93;;;;;;;;;;5056151;28;20277;-71
2022/03/16 00:50:10;;;;;;;3.93;2.90;;;;;;;;;;5069627;28;20771;-72
2022/03/16 00:52:41;;;;;;;4.20;3.33;;;;;;;;;;5050002;28;20253;-71
2022/03/16 00:55:13;;;;;;;3.70;3.03;;;;;;;;;;5013668;28;20214;-70
2022/03/16 00:57:43;;;;;;;3.33;2.80;;;;;;;;;;5066586;28;20213;-71
2022/03/16 01:00:14;;;;;;;5.60;2.90;;;;;;;;;;5059558;28;20217;-71
2022/03/16 01:02:43;;;;;;;4.30;3.40;;;;;;;;;;5051090;28;20202;-71
2022/03/16 01:05:13;;;;;;;3.90;2.90;;;;;;;;;;5077818;28;20251;-70
2022/03/16 01:07:46;;;;;;;3.93;3.03;;;;;;;;;;5067846;28;20193;-71
2022/03/16 01:10:18;;;;;;;3.43;2.70;;;;;;;;;;5075783;28;20297;-71
2022/03/16 01:12:50;;;;;;;3.47;2.50;;;;;;;;;;5070878;28;20282;-71
2022/03/16 01:15:23;;;;;;;3.20;2.90;;;;;;;;;;5081680;28;20213;-71
2022/03/16 01:17:58;;;;;;;3.20;2.73;;;;;;;;;;5086236;28;20197;-71
2022/03/16 01:20:27;;;;;;;2.90;2.60;;;;;;;;;;5079637;28;20239;-70
2022/03/16 01:22:55;;;;;;;3.47;3.17;;;;;;;;;;5069026;28;20206;-71
2022/03/16 01:25:25;;;;;;;3.33;2.83;;;;;;;;;;5063239;28;20202;-71
2022/03/16 01:27:58;;;;;;;2.70;2.50;;;;;;;;;;5058365;28;20185;-72
2022/03/16 01:30:29;;;;;;;2.90;2.60;;;;;;;;;;5070429;28;20398;-71
2022/03/16 01:33:02;;;;;;;2.60;2.40;;;;;;;;;;5071459;28;20210;-71
2022/03/16 01:35:36;;;;;;;3.83;2.90;;;;;;;;;;5047137;28;20198;-71
2022/03/16 01:38:08;;;;;;;2.87;2.60;;;;;;;;;;5060345;28;20692;-71
2022/03/16 01:40:37;;;;;;;3.03;2.70;;;;;;;;;;5063426;28;20198;-70
2022/03/16 01:43:09;;;;;;;2.90;2.60;;;;;;;;;;5080756;28;20834;-70
2022/03/16 01:45:49;;;;;;;2.67;2.47;;;;;;;;;;5067036;28;20651;-70
2022/03/16 01:48:22;;;;;;;2.90;2.70;;;;;;;;;;5049777;28;20197;-70
2022/03/16 01:50:51;;;;;;;2.70;2.50;;;;;;;;;;5058885;28;20197;-71
2022/03/16 01:53:21;;;;;;;2.80;2.47;;;;;;;;;;5070841;28;20209;-70
2022/03/16 01:55:51;;;;;;;3.30;2.50;;;;;;;;;;5075487;28;20216;-70
2022/03/16 01:58:21;;;;;;;2.73;2.50;;;;;;;;;;5060359;28;20224;-71
2022/03/16 02:00:51;;;;;;;2.90;2.60;;;;;;;;;;5070211;28;20225;-70
2022/03/16 02:03:21;;;;;;;3.07;2.60;;;;;;;;;;5070367;28;20722;-69
2022/03/16 02:05:51;;;;;;;2.53;2.33;;;;;;;;;;5069065;28;20205;-70
2022/03/16 02:08:23;;;;;;;3.97;2.70;;;;;;;;;;5064452;28;20320;-71
2022/03/16 02:10:56;;;;;;;2.53;2.33;;;;;;;;;;5069556;28;20210;-70
2022/03/16 02:13:29;;;;;;;2.60;2.40;;;;;;;;;;5061801;28;20202;-71
2022/03/16 02:15:59;;;;;;;3.43;3.10;;;;;;;;;;5090193;28;20200;-70
2022/03/16 02:18:31;;;;;;;2.70;2.43;;;;;;;;;;5087512;28;20212;-70
2022/03/16 02:21:02;;;;;;;2.97;2.40;;;;;;;;;;5086550;28;20256;-70
2022/03/16 02:23:34;;;;;;;2.93;2.63;;;;;;;;;;5081181;28;20204;-70
2022/03/16 02:26:08;;;;;;;2.70;2.20;;;;;;;;;;5089397;28;20196;-70
2022/03/16 02:28:41;;;;;;;2.80;2.33;;;;;;;;;;5088291;28;20189;-71
2022/03/16 02:31:14;;;;;;;2.70;2.50;;;;;;;;;;5072436;28;20220;-71
2022/03/16 02:33:46;;;;;;;3.37;2.43;;;;;;;;;;5085960;28;20277;-70
2022/03/16 02:36:17;;;;;;;3.13;2.70;;;;;;;;;;5087702;28;20204;-70
2022/03/16 02:39:00;;;;;;;2.80;2.50;;;;;;;;;;5089922;28;20286;-70
2022/03/16 02:41:37;;;;;;;2.57;2.37;;;;;;;;;;5073234;28;20208;-70
2022/03/16 02:44:06;;;;;;;2.50;2.30;;;;;;;;;;5071389;28;20195;-70
2022/03/16 02:46:34;;;;;;;3.20;2.20;;;;;;;;;;5079488;28;20205;-70
2022/03/16 02:49:06;;;;;;;2.90;2.63;;;;;;;;;;5083195;28;20227;-70
2022/03/16 02:51:40;;;;;;;2.63;2.40;;;;;;;;;;5089381;28;20262;-70
2022/03/16 02:54:12;;;;;;;3.33;2.60;;;;;;;;;;5088278;28;20211;-70
2022/03/16 02:56:40;;;;;;;2.90;2.50;;;;;;;;;;5083712;28;20221;-71
2022/03/16 02:59:11;;;;;;;2.60;2.40;;;;;;;;;;5088677;28;20216;-70
2022/03/16 03:01:43;;;;;;;2.53;2.33;;;;;;;;;;5089297;28;20213;-71
2022/03/16 03:04:14;;;;;;;3.23;2.30;;;;;;;;;;5072066;28;20197;-71
2022/03/16 03:06:45;;;;;;;3.10;2.80;;;;;;;;;;5088724;28;20204;-71
2022/03/16 03:09:19;;;;;;;2.80;2.60;;;;;;;;;;5086393;28;20273;-70
2022/03/16 03:11:49;;;;;;;3.43;2.60;;;;;;;;;;5088588;28;20648;-70
2022/03/16 03:14:21;;;;;;;3.23;2.23;;;;;;;;;;5086725;28;20225;-71
2022/03/16 03:17:01;;;;;;;2.30;2.10;;;;;;;;;;5102362;28;20231;-70
2022/03/16 03:19:32;;;;;;;2.60;2.37;;;;;;;;;;5079624;28;20229;-70
2022/03/16 03:22:05;;;;;;;2.17;2.00;;;;;;;;;;5073914;28;20215;-70
2022/03/16 03:24:40;;;;;;;2.73;2.50;;;;;;;;;;5087488;28;20281;-70
2022/03/16 03:27:12;;;;;;;2.40;2.20;;;;;;;;;;5062350;28;20204;-71
2022/03/16 03:29:42;;;;;;;2.47;2.27;;;;;;;;;;5088852;28;20223;-71
2022/03/16 03:32:13;;;;;;;2.70;2.50;;;;;;;;;;5088110;28;20189;-71
2022/03/16 03:34:46;;;;;;;2.40;2.20;;;;;;;;;;5086994;28;20220;-71
2022/03/16 03:37:21;;;;;;;3.00;2.37;;;;;;;;;;5088117;28;20185;-71
2022/03/16 03:39:54;;;;;;;2.93;2.43;;;;;;;;;;5088256;28;20212;-71
2022/03/16 03:42:30;;;;;;;2.60;2.40;;;;;;;;;;5083601;28;20227;-71
2022/03/16 03:45:01;;;;;;;2.97;2.67;;;;;;;;;;5065887;28;20214;-70
2022/03/16 03:47:37;;;;;;;2.67;2.47;;;;;;;;;;5083343;28;20189;-70
2022/03/16 03:50:16;;;;;;;2.73;2.40;;;;;;;;;;5079570;28;20201;-70
2022/03/16 03:52:45;;;;;;;2.70;2.50;;;;;;;;;;5076362;28;20201;-71
2022/03/16 03:55:13;;;;;;;2.80;2.60;;;;;;;;;;5087347;28;20723;-71
2022/03/16 03:57:45;;;;;;;2.30;2.10;;;;;;;;;;5083362;28;20266;-71
2022/03/16 04:00:16;;;;;;;3.17;2.83;;;;;;;;;;5094161;28;20232;-71
2022/03/16 04:02:50;;;;;;;2.43;2.10;;;;;;;;;;5076405;28;20185;-70
2022/03/16 04:05:21;;;;;;;2.67;2.47;;;;;;;;;;5088552;28;20200;-70
2022/03/16 04:07:52;;;;;;;3.30;2.70;;;;;;;;;;5074392;28;20203;-71
2022/03/16 04:10:20;;;;;;;2.53;2.33;;;;;;;;;;5083157;28;20329;-70
2022/03/16 04:12:51;;;;;;;2.50;2.30;;;;;;;;;;5079405;28;20197;-71
2022/03/16 04:15:20;;;;;;;3.43;2.67;;;;;;;;;;5098930;28;20204;-69
2022/03/16 04:17:54;;;;;;;2.60;2.40;;;;;;;;;;5087966;28;20189;-71
2022/03/16 04:20:47;;;;;;;2.73;2.30;;;;;;;;;;5073961;28;20241;-70
2022/03/16 04:23:16;;;;;;;3.17;2.40;;;;;;;;;;5069504;28;20778;-70
2022/03/16 04:25:46;;;;;;;3.10;2.70;;;;;;;;;;5087961;28;20189;-70
2022/03/16 04:28:22;;;;;;;2.90;2.57;;;;;;;;;;5085250;28;20201;-71
2022/03/16 04:30:55;;;;;;;2.57;2.33;;;;;;;;;;5105480;28;20643;-71
2022/03/16 04:33:30;;;;;;;2.87;2.67;;;;;;;;;;5083252;28;20691;-70
2022/03/16 04:36:02;;;;;;;3.73;2.53;;;;;;;;;;5088003;28;20203;-70
2022/03/16 04:38:33;;;;;;;3.57;2.10;;;;;;;;;;5084599;28;20221;-70
2022/03/16 04:41:02;;;;;;;2.50;2.23;;;;;;;;;;5087984;28;20224;-72
2022/03/16 04:43:32;;;;;;;2.70;2.30;;;;;;;;;;5086378;28;20208;-71
2022/03/16 04:46:04;;;;;;;2.47;2.20;;;;;;;;;;5085134;28;20645;-70
2022/03/16 04:48:44;;;;;;;2.60;2.40;;;;;;;;;;5062082;28;20646;-69
2022/03/16 04:51:12;;;;;;;2.50;2.27;;;;;;;;;;5083161;28;20219;-69
2022/03/16 04:53:41;;;;;;;2.57;2.37;;;;;;;;;;5070141;28;20185;-69
2022/03/16 04:56:12;;;;;;;2.90;2.47;;;;;;;;;;5071665;28;20875;-70
2022/03/16 04:58:43;;;;;;;4.20;2.73;;;;;;;;;;5084833;28;20217;-70
2022/03/16 05:01:13;;;;;;;2.80;2.50;;;;;;;;;;5087425;28;20212;-71
2022/03/16 05:03:50;;;;;;;2.60;2.33;;;;;;;;;;5087596;28;20188;-71
2022/03/16 05:06:21;;;;;;;2.60;2.40;;;;;;;;;;5089325;28;20215;-70
2022/03/16 05:08:52;;;;;;;3.53;2.30;;;;;;;;;;5084366;28;20192;-71
2022/03/16 05:11:28;;;;;;;2.93;2.67;;;;;;;;;;5070212;28;20281;-69
2022/03/16 05:13:57;;;;;;;2.80;2.60;;;;;;;;;;5086627;28;20252;-71
2022/03/16 05:16:25;;;;;;;2.13;2.00;;;;;;;;;;5087335;28;20859;-71
2022/03/16 05:18:56;;;;;;;4.53;2.40;;;;;;;;;;5091087;28;20203;-70
2022/03/16 05:21:31;;;;;;;3.17;2.43;;;;;;;;;;5088054;28;20236;-70
2022/03/16 05:24:02;;;;;;;2.80;2.27;;;;;;;;;;5081382;28;20611;-70
2022/03/16 05:26:36;;;;;;;3.43;3.13;;;;;;;;;;5082029;28;20185;-70
2022/03/16 05:29:05;;;;;;;2.80;2.60;;;;;;;;;;5091153;28;20197;-70
2022/03/16 05:31:36;;;;;;;3.27;2.60;;;;;;;;;;5090677;28;20725;-70
2022/03/16 05:34:04;;;;;;;2.80;2.60;;;;;;;;;;5087638;28;20209;-70
2022/03/16 05:36:47;;;;;;;2.70;2.50;;;;;;;;;;5098854;28;20240;-72
2022/03/16 05:39:18;;;;;;;2.30;2.10;;;;;;;;;;5090437;28;20216;-73
2022/03/16 05:41:49;;;;;;;2.63;2.43;;;;;;;;;;5100587;28;20808;-72
2022/03/16 05:44:17;;;;;;;5.00;2.73;;;;;;;;;;5087996;28;20200;-72
2022/03/16 05:46:48;;;;;;;6.07;2.40;;;;;;;;;;5095638;28;20200;-72
2022/03/16 05:49:20;;;;;;;2.93;2.63;;;;;;;;;;5090617;28;20185;-72
2022/03/16 05:51:55;;;;;;;2.90;2.13;;;;;;;;;;5066412;28;20197;-72
2022/03/16 05:54:27;;;;;;;2.80;2.40;;;;;;;;;;5087675;28;20207;-74
2022/03/16 05:56:59;;;;;;;2.87;2.40;;;;;;;;;;5088198;28;20217;-73
2022/03/16 05:59:35;;;;;;;3.03;2.50;;;;;;;;;;5083459;28;20210;-73
2022/03/16 06:02:08;;;;;;;3.10;2.87;;;;;;;;;;5070313;28;20209;-71
2022/03/16 06:04:38;;;;;;;3.27;2.90;;;;;;;;;;5087144;28;20217;-71
2022/03/16 06:07:07;;;;;;;2.70;2.50;;;;;;;;;;5091756;28;20215;-74
2022/03/16 06:09:38;;;;;;;5.57;2.50;;;;;;;;;;5087098;28;20723;-74
2022/03/16 06:12:09;;;;;;;3.50;2.73;;;;;;;;;;5070502;28;20225;-74
2022/03/16 06:14:37;;;;;;;2.30;2.10;;;;;;;;;;5070273;28;20649;-74
2022/03/16 06:17:07;;;;;;;2.90;2.57;;;;;;;;;;5090164;28;20611;-72
2022/03/16 06:19:39;;;;;;;3.10;2.80;;;;;;;;;;5090083;28;20249;-73
2022/03/16 06:22:09;;;;;;;4.33;3.07;;;;;;;;;;5065715;28;20231;-71
2022/03/16 06:24:38;;;;;;;3.40;2.80;;;;;;;;;;5086841;28;20205;-71
2022/03/16 06:27:09;;;;;;;4.03;3.13;;;;;;;;;;5068391;28;20193;-71
2022/03/16 06:29:39;;;;;;;4.00;2.67;;;;;;;;;;5082133;28;20211;-71
2022/03/16 06:32:10;;;;;;;5.13;3.00;;;;;;;;;;5083381;28;20218;-70
2022/03/16 06:34:37;;;;;;;7.63;3.13;;;;;;;;;;5080095;28;20254;-71
2022/03/16 06:37:10;;;;;;;5.57;3.33;;;;;;;;;;5085783;28;20225;-70
2022/03/16 06:39:40;;;;;;;6.50;3.10;;;;;;;;;;5089266;28;20197;-70
2022/03/16 06:42:09;;;;;;;5.93;4.03;;;;;;;;;;5089073;28;20271;-73
2022/03/16 06:44:40;;;;;;;6.43;4.00;;;;;;;;;;5084638;28;20219;-74
2022/03/16 06:47:09;;;;;;;7.63;4.50;;;;;;;;;;5089131;28;20267;-71
2022/03/16 06:49:41;;;;;;;7.63;4.97;;;;;;;;;;5089035;28;20262;-70
2022/03/16 06:52:12;;;;;;;31.33;11.07;;;;;;;;;;5069313;28;20236;-73
2022/03/16 06:54:42;;;;;;;75.97;19.17;;;;;;;;;;5077667;28;20189;-73
2022/03/16 06:57:15;;;;;;;80.93;22.13;;;;;;;;;;5085426;28;20294;-71
2022/03/16 07:00:03;;;;;;;71.23;21.63;;;;;;;;;;5081396;28;20193;-71
2022/03/16 07:02:46;;;;;;;83.57;22.43;;;;;;;;;;5086411;28;20213;-71
2022/03/16 07:05:21;;;;;;;66.83;20.27;;;;;;;;;;5092333;28;20275;-71
2022/03/16 07:07:53;;;;;;;67.57;19.30;;;;;;;;;;5091570;28;20169;-71
2022/03/16 07:10:25;;;;;;;49.20;18.17;;;;;;;;;;5090283;28;20213;-73
2022/03/16 07:12:55;;;;;;;51.73;17.80;;;;;;;;;;5087681;28;20201;-73
2022/03/16 07:15:26;;;;;;;57.03;16.87;;;;;;;;;;5088693;28;20230;-71
2022/03/16 07:17:54;;;;;;;45.80;16.23;;;;;;;;;;5092536;28;20192;-71
2022/03/16 07:20:25;;;;;;;41.27;14.87;;;;;;;;;;5090531;28;20209;-73
2022/03/16 07:23:12;;;;;;;46.97;15.77;;;;;;;;;;5071372;28;20205;-73
2022/03/16 07:25:46;;;;;;;29.33;13.20;;;;;;;;;;5086328;28;20212;-71
2022/03/16 07:28:18;;;;;;;30.47;13.37;;;;;;;;;;5069191;28;20256;-71
2022/03/16 07:30:49;;;;;;;33.97;13.57;;;;;;;;;;5088921;28;20195;-70
2022/03/16 07:33:21;;;;;;;30.90;12.70;;;;;;;;;;5086191;28;20208;-71
2022/03/16 07:35:58;;;;;;;23.67;10.93;;;;;;;;;;5085179;28;20230;-70
2022/03/16 07:38:28;;;;;;;26.70;12.27;;;;;;;;;;5100547;28;20233;-70
2022/03/16 07:41:11;;;;;;;27.40;11.53;;;;;;;;;;5087387;28;20682;-70
2022/03/16 07:43:41;;;;;;;23.10;10.27;;;;;;;;;;5088367;28;20192;-71
2022/03/16 07:46:11;;;;;;;24.50;10.80;;;;;;;;;;5085340;28;20194;-70
2022/03/16 07:48:43;;;;;;;20.60;9.73;;;;;;;;;;5082802;28;20239;-71
2022/03/16 07:51:31;;;;;;;23.10;9.57;;;;;;;;;;5087554;28;20357;-71
2022/03/16 07:54:02;;;;;;;20.93;9.70;;;;;;;;;;5087195;28;20205;-71
2022/03/16 07:56:31;;;;;;;17.17;8.30;;;;;;;;;;5082703;28;20766;-70
2022/03/16 07:59:01;;;;;;;21.20;8.90;;;;;;;;;;5070471;28;20220;-71
2022/03/16 08:01:31;;;;;;;19.20;9.60;;;;;;;;;;5083208;28;20300;-70
2022/03/16 08:04:02;;;;;;;17.13;8.53;;;;;;;;;;5086703;28;20189;-71
2022/03/16 08:06:32;;;;;;;16.63;7.83;;;;;;;;;;5066765;28;20189;-70
2022/03/16 08:09:14;;;;;;;15.00;7.80;;;;;;;;;;5085316;28;20275;-70
2022/03/16 08:11:46;;;;;;;13.77;7.40;;;;;;;;;;5087376;28;20200;-75
2022/03/16 08:14:16;;;;;;;14.97;8.10;;;;;;;;;;5081465;28;20204;-73
2022/03/16 08:16:58;;;;;;;12.23;7.23;;;;;;;;;;5083603;28;20197;-71
2022/03/16 08:19:33;;;;;;;13.90;7.90;;;;;;;;;;5085303;28;20277;-70
2022/03/16 08:22:02;;;;;;;10.83;6.70;;;;;;;;;;5083642;28;20218;-74
2022/03/16 08:24:52;;;;;;;12.47;7.33;;;;;;;;;;5064897;28;20216;-72
2022/03/16 08:27:24;;;;;;;10.40;6.90;;;;;;;;;;5068725;28;20192;-72
2022/03/16 08:29:54;;;;;;;9.90;6.37;;;;;;;;;;5082352;28;20200;-73
2022/03/16 08:32:25;;;;;;;9.07;6.53;;;;;;;;;;5083386;28;20231;-71
2022/03/16 08:34:55;;;;;;;10.20;6.30;;;;;;;;;;5060334;28;20230;-70
2022/03/16 08:37:24;;;;;;;11.70;5.97;;;;;;;;;;5063567;28;20212;-73
2022/03/16 08:39:57;;;;;;;8.13;5.57;;;;;;;;;;5063904;28;20202;-72
2022/03/16 08:42:29;;;;;;;7.73;5.87;;;;;;;;;;5066017;28;20223;-67
2022/03/16 08:45:01;;;;;;;20.30;8.70;;;;;;;;;;5074234;28;20263;-70
2022/03/16 08:47:34;;;;;;;25.40;9.20;;;;;;;;;;5067262;28;20278;-70
2022/03/16 08:50:07;;;;;;;22.27;8.80;;;;;;;;;;5085610;28;20257;-72
2022/03/16 08:52:36;;;;;;;20.37;9.13;;;;;;;;;;5072049;28;20684;-73
2022/03/16 08:55:09;;;;;;;21.80;8.77;;;;;;;;;;5054388;28;20197;-70
2022/03/16 08:57:39;;;;;;;17.97;8.03;;;;;;;;;;5079710;28;20217;-70
2022/03/16 09:00:15;;;;;;;17.67;8.30;;;;;;;;;;5077765;28;20197;-71
2022/03/16 09:02:44;;;;;;;17.57;8.07;;;;;;;;;;5089879;28;20677;-70
2022/03/16 09:05:15;;;;;;;14.60;7.77;;;;;;;;;;5099794;28;20607;-69
2022/03/16 09:07:48;;;;;;;15.33;8.07;;;;;;;;;;5088769;28;20235;-68
2022/03/16 09:10:18;;;;;;;14.30;7.10;;;;;;;;;;5081918;28;20216;-67
2022/03/16 09:12:56;;;;;;;9.27;6.90;;;;;;;;;;5089498;28;20204;-67
2022/03/16 09:15:30;;;;;;;10.67;6.97;;;;;;;;;;5089898;28;20285;-69
2022/03/16 09:18:02;;;;;;;11.00;7.17;;;;;;;;;;5089795;28;20223;-70
2022/03/16 09:20:31;;;;;;;9.33;7.10;;;;;;;;;;5063266;28;20215;-70
2022/03/16 09:23:03;;;;;;;15.17;6.53;;;;;;;;;;5089324;28;20220;-71
2022/03/16 09:25:34;;;;;;;10.73;7.00;;;;;;;;;;5085059;28;20220;-68
2022/03/16 09:28:05;;;;;;;9.33;6.77;;;;;;;;;;5086332;28;20201;-66
2022/03/16 09:30:41;;;;;;;10.70;6.17;;;;;;;;;;5084971;28;20540;-69
2022/03/16 09:33:13;;;;;;;9.43;6.00;;;;;;;;;;5086036;28;20231;-68
2022/03/16 09:35:45;;;;;;;8.70;6.70;;;;;;;;;;5068571;28;20202;-66
2022/03/16 09:38:18;;;;;;;11.27;6.17;;;;;;;;;;5083983;28;20240;-68
2022/03/16 09:40:52;;;;;;;8.03;6.10;;;;;;;;;;5088491;28;20201;-70
2022/03/16 09:43:24;;;;;;;7.37;6.23;;;;;;;;;;5087506;28;20616;-69
2022/03/16 09:46:00;;;;;;;6.80;5.80;;;;;;;;;;5095851;28;20256;-69
2022/03/16 09:48:42;;;;;;;7.17;5.47;;;;;;;;;;5078653;28;20197;-68
2022/03/16 09:51:16;;;;;;;6.27;5.00;;;;;;;;;;5088956;28;20589;-68
2022/03/16 09:53:49;;;;;;;5.90;5.30;;;;;;;;;;5066809;28;20258;-66
2022/03/16 09:56:23;;;;;;;6.87;5.20;;;;;;;;;;5081498;28;20205;-67
2022/03/16 09:58:55;;;;;;;5.87;5.10;;;;;;;;;;5086865;28;20204;-65
2022/03/16 10:01:25;;;;;;;6.13;5.40;;;;;;;;;;5069984;28;20719;-66
2022/03/16 10:03:59;;;;;;;7.47;5.33;;;;;;;;;;5071325;28;20194;-68
2022/03/16 10:06:40;;;;;;;5.80;5.20;;;;;;;;;;5077416;28;20189;-69
2022/03/16 10:15:14;;;;;;;5.30;4.77;;;;;;;;;;5068774;28;20599;-69
2022/03/16 10:18:07;;;;;;;7.00;5.53;;;;;;;;;;5090066;28;20626;-67
2022/03/16 10:20:42;;;;;;;12.50;4.20;;;;;;;;;;5084021;28;20222;-72
2022/03/16 10:23:21;;;;;;;7.53;5.20;;;;;;;;;;5080631;28;20263;-71
2022/03/16 10:25:51;;;;;;;5.37;4.53;;;;;;;;;;5081203;28;20197;-72
2022/03/16 10:28:25;;;;;;;5.67;5.17;;;;;;;;;;5087911;28;20201;-71
2022/03/16 10:31:02;;;;;;;4.80;4.23;;;;;;;;;;5086317;28;20185;-69
2022/03/16 10:33:32;;;;;;;4.90;4.07;;;;;;;;;;5084538;28;20880;-68
2022/03/16 10:36:05;;;;;;;4.77;4.30;;;;;;;;;;5088433;28;20245;-71
2022/03/16 10:38:37;;;;;;;4.80;4.40;;;;;;;;;;5084609;28;20235;-71
2022/03/16 10:46:58;;;;;;;4.60;4.20;;;;;;;;;;5087700;28;20197;-65
2022/03/16 10:49:34;;;;;;;6.83;5.50;;;;;;;;;;5086303;28;20208;-68
2022/03/16 10:52:15;;;;;;;6.13;5.57;;;;;;;;;;5079936;28;20192;-72
2022/03/16 10:54:57;;;;;;;5.40;4.90;;;;;;;;;;5072976;28;20197;-75
2022/03/16 10:57:26;;;;;;;7.87;5.70;;;;;;;;;;5086368;28;20200;-71
2022/03/16 10:59:58;;;;;;;6.90;6.13;;;;;;;;;;5092572;28;20185;-73
2022/03/16 11:02:34;;;;;;;6.17;5.57;;;;;;;;;;5077167;28;20217;-73
2022/03/16 11:05:06;;;;;;;5.73;5.13;;;;;;;;;;5091992;28;20249;-72
2022/03/16 11:07:41;;;;;;;5.57;5.07;;;;;;;;;;5067340;28;20204;-72
2022/03/16 11:10:25;;;;;;;5.70;5.20;;;;;;;;;;5079619;28;20204;-74
2022/03/16 11:15:44;;;;;;;6.23;5.63;;;;;;;;;;5080427;28;20193;-74
2022/03/16 11:18:14;;;;;;;5.90;5.30;;;;;;;;;;5096922;28;20196;-74
2022/03/16 11:20:46;;;;;;;5.27;4.80;;;;;;;;;;5095452;28;20212;-72
2022/03/16 11:26:37;;;;;;;5.90;4.67;;;;;;;;;;5100866;28;20195;-72
2022/03/16 11:29:23;;;;;;;6.30;5.70;;;;;;;;;;5098842;28;20227;-71
2022/03/16 11:32:11;;;;;;;5.77;5.17;;;;;;;;;;5089023;28;20181;-73
2022/03/16 11:34:41;;;;;;;5.60;5.10;;;;;;;;;;5083975;28;20216;-71
2022/03/16 11:37:12;;;;;;;6.00;5.50;;;;;;;;;;5088823;28;20201;-72
2022/03/16 11:39:49;;;;;;;5.90;5.30;;;;;;;;;;5080223;28;20208;-71
2022/03/16 11:42:19;;;;;;;5.90;5.40;;;;;;;;;;5091246;28;20240;-72
2022/03/16 11:44:47;;;;;;;5.33;4.90;;;;;;;;;;5064162;28;20273;-73
2022/03/16 11:47:17;;;;;;;5.40;4.93;;;;;;;;;;5076384;28;20255;-72
2022/03/16 11:50:13;;;;;;;5.63;5.13;;;;;;;;;;5081374;28;20196;-71
2022/03/16 11:53:00;;;;;;;5.33;4.83;;;;;;;;;;5067243;28;20201;-70
2022/03/16 11:55:43;;;;;;;5.63;5.13;;;;;;;;;;5073054;28;20753;-70
2022/03/16 11:58:27;;;;;;;5.13;4.73;;;;;;;;;;5063888;28;20209;-71
2022/03/16 12:01:16;;;;;;;5.50;5.03;;;;;;;;;;5081758;28;20857;-71
2022/03/16 12:03:47;;;;;;;5.00;4.50;;;;;;;;;;5082062;28;20747;-71
2022/03/16 12:06:22;;;;;;;5.37;4.87;;;;;;;;;;5085793;28;20204;-70
2022/03/16 12:09:00;;;;;;;5.40;4.90;;;;;;;;;;5087221;28;20211;-71
2022/03/16 12:15:09;;;;;;;4.40;4.03;;;;;;;;;;5091762;28;20209;-71
2022/03/16 12:17:41;;;;;;;4.57;4.17;;;;;;;;;;5090353;28;20595;-71
2022/03/16 12:20:15;;;;;;;4.80;4.40;;;;;;;;;;5097259;28;20211;-71
2022/03/16 12:22:47;;;;;;;5.07;4.57;;;;;;;;;;5092470;28;20745;-70
2022/03/16 12:25:30;;;;;;;5.50;5.00;;;;;;;;;;5067544;28;20228;-70
2022/03/16 12:31:15;;;;;;;4.60;4.20;;;;;;;;;;5081980;28;20193;-70
2022/03/16 12:33:59;;;;;;;6.30;4.33;;;;;;;;;;5082102;28;20204;-70
2022/03/16 12:36:37;;;;;;;4.60;4.20;;;;;;;;;;5080776;28;20971;-70
2022/03/16 12:39:10;;;;;;;4.73;4.30;;;;;;;;;;5064126;28;20232;-72
2022/03/16 12:44:45;;;;;;;5.87;4.40;;;;;;;;;;5081226;28;20189;-70
2022/03/16 12:47:42;;;;;;;5.00;4.60;;;;;;;;;;5069942;28;20216;-70
2022/03/16 12:50:16;;;;;;;4.57;4.17;;;;;;;;;;5090574;28;20653;-69
2022/03/16 12:52:54;;;;;;;4.67;4.17;;;;;;;;;;5077763;28;20250;-68
2022/03/16 12:55:24;;;;;;;4.00;3.70;;;;;;;;;;5083380;28;20181;-66
2022/03/16 12:57:57;;;;;;;5.33;4.00;;;;;;;;;;5081992;28;20209;-65
2022/03/16 13:00:53;;;;;;;3.70;3.40;;;;;;;;;;5078963;28;20197;-66
2022/03/16 13:03:24;;;;;;;3.43;3.13;;;;;;;;;;5083166;28;20258;-67
2022/03/16 13:05:52;;;;;;;4.40;3.30;;;;;;;;;;5097085;28;20623;-69
2022/03/16 13:08:23;;;;;;;3.67;2.93;;;;;;;;;;5060681;28;20177;-69
2022/03/16 13:11:19;;;;;;;2.93;2.73;;;;;;;;;;5083794;28;20208;-69
2022/03/16 13:14:02;;;;;;;3.07;2.60;;;;;;;;;;5075757;28;20216;-70
2022/03/16 13:16:45;;;;;;;4.10;2.70;;;;;;;;;;5087061;28;20227;-66
2022/03/16 13:19:42;;;;;;;4.10;2.90;;;;;;;;;;5087240;28;20223;-67
2022/03/16 13:22:16;;;;;;;3.10;2.90;;;;;;;;;;5081778;28;20200;-71
2022/03/16 13:24:50;;;;;;;3.07;2.77;;;;;;;;;;5085063;28;20193;-71
2022/03/16 13:27:21;;;;;;;4.63;2.60;;;;;;;;;;5091683;28;20869;-70
2022/03/16 13:29:53;;;;;;;4.50;2.37;;;;;;;;;;5086768;28;20185;-70
2022/03/16 13:32:32;;;;;;;3.03;2.70;;;;;;;;;;5065882;28;20189;-66
2022/03/16 13:35:28;;;;;;;3.90;2.63;;;;;;;;;;5069671;28;20204;-68
2022/03/16 13:38:08;;;;;;;3.00;2.80;;;;;;;;;;5096145;28;20235;-70
2022/03/16 13:40:42;;;;;;;3.13;2.27;;;;;;;;;;5092095;28;20187;-68
2022/03/16 13:43:36;;;;;;;2.60;2.40;;;;;;;;;;5077486;28;20212;-65
2022/03/16 13:46:14;;;;;;;4.30;2.67;;;;;;;;;;5073438;28;20255;-70
2022/03/16 13:48:44;;;;;;;2.40;2.20;;;;;;;;;;5102201;28;20205;-69
2022/03/16 13:51:15;;;;;;;2.20;2.00;;;;;;;;;;5098219;28;20200;-70
2022/03/16 13:53:49;;;;;;;3.10;2.70;;;;;;;;;;5094397;28;20209;-70
2022/03/16 13:56:24;;;;;;;3.10;2.80;;;;;;;;;;5080511;28;20219;-71
2022/03/16 13:58:57;;;;;;;2.40;2.20;;;;;;;;;;5072937;28;20667;-71
2022/03/16 14:01:31;;;;;;;2.60;2.23;;;;;;;;;;5091960;28;20200;-68
2022/03/16 14:04:03;;;;;;;3.07;2.43;;;;;;;;;;5092575;28;20679;-71
2022/03/16 14:06:38;;;;;;;3.00;2.70;;;;;;;;;;5067372;28;20197;-72
2022/03/16 14:09:46;;;;;;;3.10;2.80;;;;;;;;;;5083561;28;20213;-72
2022/03/16 14:12:22;;;;;;;2.57;2.37;;;;;;;;;;5086321;28;20193;-72
2022/03/16 14:15:02;;;;;;;2.93;2.63;;;;;;;;;;5065949;28;20193;-67
2022/03/16 14:17:44;;;;;;;3.80;2.10;;;;;;;;;;5086663;28;20196;-65
2022/03/16 14:20:21;;;;;;;2.30;2.10;;;;;;;;;;5081157;28;20247;-66
2022/03/16 14:22:55;;;;;;;2.60;2.40;;;;;;;;;;5089666;28;20221;-66
2022/03/16 14:25:25;;;;;;;2.40;2.20;;;;;;;;;;5086916;28;20193;-68
2022/03/16 14:27:59;;;;;;;2.47;2.27;;;;;;;;;;5087410;28;20208;-69
2022/03/16 14:30:36;;;;;;;2.87;2.30;;;;;;;;;;5052682;28;20467;-70
2022/03/16 14:33:07;;;;;;;2.60;2.30;;;;;;;;;;5085729;28;20208;-69
2022/03/16 14:35:36;;;;;;;2.37;2.13;;;;;;;;;;5064685;28;20189;-69
2022/03/16 14:38:06;;;;;;;2.47;2.10;;;;;;;;;;5068604;28;20235;-69
2022/03/16 14:40:57;;;;;;;2.13;1.93;;;;;;;;;;5057621;28;20200;-67
2022/03/16 14:43:37;;;;;;;2.90;2.17;;;;;;;;;;5090342;28;20736;-67
2022/03/16 14:46:08;;;;;;;2.47;1.80;;;;;;;;;;5066689;28;20209;-68
2022/03/16 14:48:39;;;;;;;2.83;2.13;;;;;;;;;;5067925;28;20189;-70
2022/03/16 14:51:07;;;;;;;2.00;1.90;;;;;;;;;;5051937;28;20212;-71
2022/03/16 14:53:37;;;;;;;2.23;2.03;;;;;;;;;;5066417;28;20204;-71
2022/03/16 14:56:08;;;;;;;3.07;2.20;;;;;;;;;;5097885;28;20735;-70
2022/03/16 14:58:37;;;;;;;2.07;1.97;;;;;;;;;;5056785;28;20299;-70
2022/03/16 15:01:05;;;;;;;3.50;2.40;;;;;;;;;;5073850;28;20899;-70
2022/03/16 15:03:35;;;;;;;4.13;2.43;;;;;;;;;;5090769;28;20217;-70
2022/03/16 15:06:12;;;;;;;2.50;2.30;;;;;;;;;;5086858;28;20185;-70
2022/03/16 15:08:41;;;;;;;3.57;2.60;;;;;;;;;;5081650;28;20225;-69
2022/03/16 15:11:09;;;;;;;3.10;2.80;;;;;;;;;;5088153;28;20186;-70
2022/03/16 15:13:39;;;;;;;3.23;2.50;;;;;;;;;;5086278;28;20193;-70
2022/03/16 15:16:10;;;;;;;2.57;2.37;;;;;;;;;;5086682;28;20199;-70
2022/03/16 15:18:48;;;;;;;3.33;2.77;;;;;;;;;;5086407;28;20211;-69
2022/03/16 15:21:22;;;;;;;2.87;2.60;;;;;;;;;;5064257;28;20216;-69
2022/03/16 15:23:52;;;;;;;2.47;2.27;;;;;;;;;;5092091;28;20208;-69
2022/03/16 15:26:25;;;;;;;3.67;2.50;;;;;;;;;;5065099;28;20844;-69
2022/03/16 15:28:59;;;;;;;2.50;2.30;;;;;;;;;;5091596;28;20188;-69
2022/03/16 15:31:29;;;;;;;3.40;2.20;;;;;;;;;;5088133;28;20196;-68
2022/03/16 15:34:01;;;;;;;2.50;2.30;;;;;;;;;;5086106;28;20205;-68
2022/03/16 15:36:36;;;;;;;3.00;2.30;;;;;;;;;;5087893;28;20670;-68
2022/03/16 15:39:08;;;;;;;2.67;2.40;;;;;;;;;;5093705;28;20248;-68
2022/03/16 15:44:30;;;;;;;3.03;2.73;;;;;;;;;;5087070;28;20200;-69
2022/03/16 15:47:04;;;;;;;3.20;2.90;;;;;;;;;;5095610;28;20192;-69
2022/03/16 15:49:34;;;;;;;3.60;3.30;;;;;;;;;;5096498;28;20214;-70